createdAt,value
2023-01-04T00:02:02.250Z,100911.36
2023-01-04T00:04:30.858Z,100904.59
2023-01-04T00:06:59.022Z,100902.69
2023-01-04T00:09:27.143Z,100898.86
2023-01-04T00:11:55.422Z,100893.33
2023-01-04T00:14:24.634Z,100893.85
2023-01-04T00:16:53.563Z,100889.33
2023-01-04T00:19:21.706Z,100889.15
2023-01-04T00:21:50.061Z,100887.94
2023-01-04T00:24:18.164Z,100884.83
2023-01-04T00:26:46.756Z,100884.65
2023-01-04T00:29:14.979Z,100882.75
2023-01-04T00:31:44.975Z,100881.55
2023-01-04T00:34:15.789Z,100876.70
2023-01-04T00:36:45.234Z,100877.72
2023-01-04T00:39:16.116Z,100878.42
2023-01-04T00:42:01.268Z,100884.14
2023-01-04T00:44:30.638Z,100875.29
2023-01-04T00:47:00.429Z,100868.88
2023-01-04T00:49:32.141Z,100867.49
2023-01-04T00:52:00.655Z,100868.55
2023-01-04T00:54:28.945Z,100867.85
2023-01-04T00:56:58.647Z,100865.94
2023-01-04T00:59:28.362Z,100860.73
2023-01-04T01:01:57.577Z,100854.83
2023-01-04T01:04:26.054Z,100851.02
2023-01-04T01:06:54.414Z,100845.65
2023-01-04T01:09:23.307Z,100843.91
2023-01-04T01:11:53.591Z,100845.48
2023-01-04T01:14:25.465Z,100844.25
2023-01-04T01:16:56.959Z,100842.17
2023-01-04T01:19:27.954Z,100842.52
2023-01-04T01:21:58.003Z,100837.14
2023-01-04T01:24:27.238Z,100835.58
2023-01-04T01:26:56.320Z,100840.08
2023-01-04T01:29:24.853Z,100837.66
2023-01-04T01:31:53.401Z,100836.27
2023-01-04T01:34:21.820Z,100831.23
2023-01-04T01:36:50.465Z,100829.16
2023-01-04T01:39:18.770Z,100832.98
2023-01-04T01:41:47.426Z,100834.35
2023-01-04T01:44:44.281Z,100837.80
2023-01-04T01:47:20.150Z,100841.95
2023-01-04T01:49:51.670Z,100840.73
2023-01-04T01:52:35.630Z,100836.73
2023-01-04T01:55:09.575Z,100832.21
2023-01-04T01:57:39.133Z,100827.70
2023-01-04T02:00:15.533Z,100825.80
2023-01-04T02:03:18.634Z,100823.89
2023-01-04T02:05:50.263Z,100820.75
2023-01-04T02:08:20.400Z,100820.60
2023-01-04T02:10:48.990Z,100814.01
2023-01-04T02:13:50.718Z,100805.15
2023-01-04T02:16:34.058Z,100801.67
2023-01-04T02:19:41.649Z,100793.86
2023-01-04T02:22:38.170Z,100782.42
2023-01-04T02:25:25.454Z,100772.55
2023-01-04T02:28:10.072Z,100767.89
2023-01-04T02:30:44.399Z,100764.26
2023-01-04T02:33:46.227Z,100763.40
2023-01-04T02:36:25.747Z,100765.30
2023-01-04T02:39:11.410Z,100755.08
2023-01-04T02:42:18.339Z,100752.30
2023-01-04T02:45:04.692Z,100760.61
2023-01-04T02:47:55.783Z,100760.09
2023-01-04T02:50:33.848Z,100764.06
2023-01-04T02:53:13.884Z,100764.22
2023-01-04T02:56:13.367Z,100755.38
2023-01-04T02:58:49.288Z,100747.56
2023-01-04T03:02:07.305Z,100747.02
2023-01-04T03:05:09.377Z,100733.16
2023-01-04T03:08:03.258Z,100725.36
2023-01-04T03:11:01.678Z,100718.08
2023-01-04T03:13:38.127Z,100714.93
2023-01-04T03:16:14.190Z,100717.88
2023-01-04T03:18:48.126Z,100715.45
2023-01-04T03:21:19.645Z,100708.35
2023-01-04T03:24:10.897Z,100705.76
2023-01-04T03:27:03.663Z,100705.95
2023-01-04T03:29:57.704Z,100713.23
2023-01-04T03:33:10.528Z,100711.50
2023-01-04T03:36:03.861Z,100707.69
2023-01-04T03:39:29.615Z,100705.09
2023-01-04T03:42:32.494Z,100692.27
2023-01-04T03:45:58.297Z,100687.61
2023-01-04T03:48:34.613Z,100681.52
2023-01-04T03:51:17.298Z,100681.69
2023-01-04T03:54:17.719Z,100673.91
2023-01-04T03:56:48.054Z,100667.48
2023-01-04T03:59:16.524Z,100656.74
2023-01-04T04:01:45.482Z,100657.78
2023-01-04T04:04:32.736Z,100652.23
2023-01-04T04:07:20.038Z,100644.61
2023-01-04T04:09:50.787Z,100632.50
2023-01-04T04:12:19.481Z,100627.29
2023-01-04T04:14:48.073Z,100619.48
2023-01-04T04:17:16.244Z,100610.68
2023-01-04T04:19:44.383Z,100609.80
2023-01-04T04:22:12.906Z,100608.23
2023-01-04T04:24:41.004Z,100605.84
2023-01-04T04:27:09.137Z,100601.16
2023-01-04T04:29:37.273Z,100600.98
2023-01-04T04:32:05.637Z,100594.23
2023-01-04T04:34:33.821Z,100587.14
2023-01-04T04:37:02.004Z,100588.02
2023-01-04T04:39:30.450Z,100588.38
2023-01-04T04:41:58.718Z,100583.69
2023-01-04T04:44:27.061Z,100586.63
2023-01-04T04:46:55.430Z,100578.15
2023-01-04T04:49:23.631Z,100585.94
2023-01-04T04:51:51.825Z,100588.88
2023-01-04T04:54:22.119Z,100583.16
2023-01-04T04:56:51.014Z,100566.39
2023-01-04T04:59:20.180Z,100561.03
2023-01-04T05:01:48.477Z,100561.73
2023-01-04T05:04:19.799Z,100556.36
2023-01-04T05:06:50.107Z,100551.52
2023-01-04T05:09:18.397Z,100549.79
2023-01-04T05:12:05.988Z,100546.15
2023-01-04T05:14:34.186Z,100539.40
2023-01-04T05:17:02.409Z,100537.15
2023-01-04T05:19:31.189Z,100523.83
2023-01-04T05:22:00.044Z,100522.27
2023-01-04T05:24:28.316Z,100513.43
2023-01-04T05:26:56.635Z,100507.20
2023-01-04T05:29:44.086Z,100502.53
2023-01-04T05:32:12.786Z,100501.84
2023-01-04T05:34:41.669Z,100495.60
2023-01-04T05:37:09.856Z,100488.87
2023-01-04T05:39:38.355Z,100490.41
2023-01-04T05:42:25.215Z,100490.41
2023-01-04T05:44:57.635Z,100487.13
2023-01-04T05:47:28.354Z,100475.70
2023-01-04T05:49:56.571Z,100463.42
2023-01-04T05:52:26.506Z,100453.04
2023-01-04T05:54:54.872Z,100444.56
2023-01-04T05:57:23.788Z,100443.87
2023-01-04T05:59:51.959Z,100448.89
2023-01-04T06:02:26.402Z,100451.13
2023-01-04T06:04:59.031Z,100448.20
2023-01-04T06:07:29.379Z,100437.80
2023-01-04T06:09:58.307Z,100429.34
2023-01-04T06:12:26.869Z,100420.86
2023-01-04T06:14:55.014Z,100417.25
2023-01-04T06:17:24.179Z,100402.02
2023-01-04T06:19:52.352Z,100404.27
2023-01-04T06:22:21.458Z,100402.71
2023-01-04T06:24:49.745Z,100398.39
2023-01-04T06:27:17.958Z,100398.56
2023-01-04T06:29:46.212Z,100393.55
2023-01-04T06:32:14.728Z,100385.92
2023-01-04T06:34:43.031Z,100380.91
2023-01-04T06:37:12.357Z,100380.23
2023-01-04T06:39:40.635Z,100381.60
2023-01-04T06:42:28.688Z,100379.86
2023-01-04T06:44:56.853Z,100381.94
2023-01-04T06:47:25.547Z,100378.66
2023-01-04T06:49:53.879Z,100369.13
2023-01-04T06:52:22.852Z,100359.96
2023-01-04T06:54:51.147Z,100352.88
2023-01-04T06:57:19.276Z,100346.79
2023-01-04T06:59:47.490Z,100338.82
2023-01-04T07:02:17.166Z,100337.23
2023-01-04T07:04:45.648Z,100333.94
2023-01-04T07:07:13.884Z,100329.94
2023-01-04T07:09:42.081Z,100325.25
2023-01-04T07:12:10.205Z,100325.57
2023-01-04T07:14:38.976Z,100324.70
2023-01-04T07:17:07.156Z,100316.91
2023-01-04T07:19:35.902Z,100316.55
2023-01-04T07:22:04.467Z,100310.64
2023-01-04T07:24:32.741Z,100303.02
2023-01-04T07:27:01.531Z,100295.20
2023-01-04T07:29:29.702Z,100292.60
2023-01-04T07:31:58.407Z,100285.30
2023-01-04T07:34:28.643Z,100279.59
2023-01-04T07:36:57.180Z,100277.15
2023-01-04T07:39:25.332Z,100267.95
2023-01-04T07:41:54.052Z,100267.58
2023-01-04T07:44:22.292Z,100263.74
2023-01-04T07:46:51.049Z,100266.83
2023-01-04T07:49:20.030Z,100263.86
2023-01-04T07:51:49.367Z,100260.71
2023-01-04T07:54:18.304Z,100258.27
2023-01-04T07:56:48.001Z,100248.71
2023-01-04T07:59:18.893Z,100240.39
2023-01-04T08:01:48.942Z,100237.41
2023-01-04T08:04:18.579Z,100235.48
2023-01-04T08:06:46.947Z,100225.77
2023-01-04T08:09:15.241Z,100222.97
2023-01-04T08:11:45.066Z,100216.71
2023-01-04T08:14:13.479Z,100210.61
2023-01-04T08:16:43.517Z,100204.71
2023-01-04T08:19:18.129Z,100202.79
2023-01-04T08:21:48.045Z,100199.13
2023-01-04T08:24:18.741Z,100195.27
2023-01-04T08:26:47.768Z,100186.58
2023-01-04T08:29:16.343Z,100177.54
2023-01-04T08:31:45.124Z,100175.45
2023-01-04T08:34:13.410Z,100171.09
2023-01-04T08:36:50.524Z,100162.77
2023-01-04T08:39:19.289Z,100156.31
2023-01-04T08:42:00.377Z,100147.04
2023-01-04T08:44:31.046Z,100145.23
2023-01-04T08:46:59.787Z,100138.08
2023-01-04T08:49:28.379Z,100137.82
2023-01-04T08:51:56.796Z,100131.84
2023-01-04T08:54:25.497Z,100123.10
2023-01-04T08:56:53.815Z,100119.91
2023-01-04T08:59:22.007Z,100110.84
2023-01-04T09:01:50.715Z,100104.22
2023-01-04T09:04:19.112Z,100095.85
2023-01-04T09:06:47.474Z,100098.03
2023-01-04T09:09:15.906Z,100093.13
2023-01-04T09:11:44.209Z,100087.67
2023-01-04T09:14:14.149Z,100088.80
2023-01-04T09:16:43.173Z,100077.25
2023-01-04T09:19:15.146Z,100073.52
2023-01-04T09:21:46.406Z,100059.90
2023-01-04T09:24:19.226Z,100064.69
2023-01-04T09:26:48.003Z,100053.83
2023-01-04T09:29:16.221Z,100057.23
2023-01-04T09:31:44.909Z,100052.11
2023-01-04T09:34:16.040Z,100044.19
2023-01-04T09:36:48.228Z,100046.40
2023-01-04T09:39:24.816Z,100038.63
2023-01-04T09:41:58.685Z,100031.73
2023-01-04T09:44:54.600Z,100022.05
2023-01-04T09:47:26.380Z,100005.14
2023-01-04T09:50:03.230Z,100000.67
2023-01-04T09:52:34.742Z,99998.30
2023-01-04T09:55:39.066Z,100000.49
2023-01-04T09:58:24.056Z,99983.15
2023-01-04T10:00:57.973Z,99981.18
2023-01-04T10:03:36.061Z,99968.03
2023-01-04T10:06:06.019Z,99966.69
2023-01-04T10:08:34.516Z,99967.76
2023-01-04T10:11:10.449Z,99958.98
2023-01-04T10:14:14.990Z,99955.56
2023-01-04T10:23:12.688Z,99929.21
2023-01-04T10:25:50.455Z,99924.02
2023-01-04T10:28:39.613Z,99919.52
2023-01-04T10:31:40.100Z,99912.73
2023-01-04T10:34:36.822Z,99908.61
2023-01-04T10:37:33.152Z,99898.35
2023-01-04T10:40:02.385Z,99884.72
2023-01-04T10:42:47.228Z,99877.33
2023-01-04T10:45:21.121Z,99871.75
2023-01-04T10:47:55.935Z,99868.44
2023-01-04T10:51:05.036Z,99858.11
2023-01-04T10:53:46.948Z,99856.10
2023-01-04T10:56:26.299Z,99852.04
2023-01-04T10:59:27.268Z,99843.48
2023-01-04T11:02:15.872Z,99833.38
2023-01-04T11:04:56.985Z,99823.11
2023-01-04T11:07:47.578Z,99828.86
2023-01-04T11:10:22.425Z,99824.55
2023-01-04T11:12:51.103Z,99819.68
2023-01-04T11:15:19.326Z,99818.27
2023-01-04T11:17:49.222Z,99811.52
2023-01-04T11:20:18.628Z,99808.06
2023-01-04T11:23:00.052Z,99804.39
2023-01-04T11:25:35.487Z,99797.22
2023-01-04T11:28:19.831Z,99782.61
2023-01-04T11:30:56.733Z,99770.93
2023-01-04T11:33:25.400Z,99771.27
2023-01-04T11:35:57.188Z,99770.77
2023-01-04T11:38:30.627Z,99757.86
2023-01-04T11:41:07.633Z,99757.96
2023-01-04T11:43:37.894Z,99753.41
2023-01-04T11:46:10.776Z,99746.65
2023-01-04T11:48:45.312Z,99739.55
2023-01-04T11:51:27.023Z,99737.10
2023-01-04T11:54:00.476Z,99734.45
2023-01-04T11:56:38.452Z,99719.91
2023-01-04T11:59:09.506Z,99720.86
2023-01-04T12:01:40.809Z,99720.48
2023-01-04T12:04:13.808Z,99714.92
2023-01-04T12:07:02.728Z,99711.42
2023-01-04T12:09:31.646Z,99705.30
2023-01-04T12:12:00.863Z,99698.64
2023-01-04T12:14:36.162Z,99690.99
2023-01-04T12:17:26.155Z,99680.58
2023-01-04T12:19:56.991Z,99680.38
2023-01-04T12:22:35.696Z,99676.02
2023-01-04T12:25:09.700Z,99670.60
2023-01-04T12:27:37.926Z,99667.81
2023-01-04T12:30:31.716Z,99660.00
2023-01-04T12:32:59.917Z,99658.27
2023-01-04T12:36:08.224Z,99647.98
2023-01-04T12:38:52.198Z,99646.05
2023-01-04T12:41:33.796Z,99647.59
2023-01-04T12:44:03.302Z,99640.13
2023-01-04T12:46:59.423Z,99637.35
2023-01-04T12:49:30.590Z,99628.83
2023-01-04T12:55:03.077Z,99617.54
2023-01-04T12:57:37.947Z,99612.45
2023-01-04T13:00:09.759Z,99605.98
2023-01-04T13:02:52.921Z,99600.70
2023-01-04T13:08:12.866Z,99583.52
2023-01-04T13:10:51.736Z,99580.64
2023-01-04T13:13:29.312Z,99567.83
2023-01-04T13:16:12.590Z,99566.26
2023-01-04T13:18:42.204Z,99560.18
2023-01-04T13:21:31.566Z,99559.37
2023-01-04T13:24:06.315Z,99553.20
2023-01-04T13:26:45.924Z,99543.95
2023-01-04T13:29:20.183Z,99556.80
2023-01-04T13:31:59.563Z,99551.59
2023-01-04T13:34:40.888Z,99551.10
2023-01-04T13:37:11.865Z,99544.82
2023-01-04T13:39:44.062Z,99538.51
2023-01-04T13:42:24.484Z,99541.17
2023-01-04T13:45:19.688Z,99537.08
2023-01-04T13:47:57.088Z,99532.45
2023-01-04T13:50:34.017Z,99538.45
2023-01-04T13:53:08.190Z,99533.34
2023-01-04T13:55:39.187Z,99531.51
2023-01-04T13:58:18.249Z,99522.17
2023-01-04T14:01:04.311Z,99523.27
2023-01-04T14:03:43.778Z,99521.80
2023-01-04T14:06:34.492Z,99517.35
2023-01-04T14:09:13.828Z,99508.92
2023-01-04T14:15:00.033Z,99509.18
2023-01-04T14:17:48.501Z,99503.25
2023-01-04T14:20:19.739Z,99491.70
2023-01-04T14:22:48.919Z,99487.72
2023-01-04T14:25:40.801Z,99485.91
2023-01-04T14:28:31.152Z,99484.81
2023-01-04T14:30:59.412Z,99475.40
2023-01-04T14:33:36.849Z,99469.85
2023-01-04T14:36:08.067Z,99466.04
2023-01-04T14:38:39.046Z,99460.65
2023-01-04T14:41:40.036Z,99452.47
2023-01-04T14:44:11.915Z,99450.56
2023-01-04T14:46:41.974Z,99445.69
2023-01-04T14:49:10.609Z,99446.20
2023-01-04T14:51:46.858Z,99442.18
2023-01-04T14:54:23.881Z,99438.34
2023-01-04T14:56:54.550Z,99435.55
2023-01-04T14:59:25.482Z,99434.67
2023-01-04T15:01:55.168Z,99436.06
2023-01-04T15:04:25.410Z,99427.90
2023-01-04T15:07:02.564Z,99425.46
2023-01-04T15:09:31.483Z,99426.00
2023-01-04T15:12:00.227Z,99425.80
2023-01-04T15:14:28.407Z,99424.48
2023-01-04T15:16:56.644Z,99427.38
2023-01-04T15:19:24.745Z,99421.78
2023-01-04T15:21:52.928Z,99410.95
2023-01-04T15:24:21.091Z,99403.80
2023-01-04T15:26:50.506Z,99400.33
2023-01-04T15:29:18.624Z,99398.23
2023-01-04T15:31:47.032Z,99396.65
2023-01-04T15:34:15.171Z,99393.85
2023-01-04T15:36:43.807Z,99387.55
2023-01-04T15:39:14.305Z,99392.38
2023-01-04T15:42:01.297Z,99392.15
2023-01-04T15:44:29.575Z,99384.58
2023-01-04T15:46:59.809Z,99380.36
2023-01-04T15:49:31.949Z,99382.53
2023-01-04T15:52:00.761Z,99378.32
2023-01-04T15:54:29.244Z,99376.89
2023-01-04T15:56:57.742Z,99369.17
2023-01-04T15:59:26.353Z,99364.21
2023-01-04T16:01:55.060Z,99365.20
2023-01-04T16:04:23.523Z,99363.77
2023-01-04T16:06:51.835Z,99355.74
2023-01-04T16:09:20.641Z,99356.06
2023-01-04T16:12:21.472Z,99352.52
2023-01-04T16:14:50.261Z,99345.80
2023-01-04T16:17:19.101Z,99345.36
2023-01-04T16:19:47.261Z,99348.13
2023-01-04T16:22:15.931Z,99346.50
2023-01-04T16:27:35.713Z,99339.88
2023-01-04T16:30:05.652Z,99336.34
2023-01-04T16:32:35.498Z,99334.95
2023-01-04T16:35:04.556Z,99328.67
2023-01-04T16:37:32.765Z,99330.70
2023-01-04T16:40:09.349Z,99331.16
2023-01-04T16:42:39.140Z,99323.05
2023-01-04T16:45:08.289Z,99320.77
2023-01-04T16:47:41.425Z,99310.92
2023-01-04T16:50:14.260Z,99317.77
2023-01-04T16:52:42.524Z,99304.23
2023-01-04T16:55:11.340Z,99317.05
2023-01-04T16:57:39.707Z,99303.27
2023-01-04T17:00:09.008Z,99305.86
2023-01-04T17:02:37.331Z,99304.59
2023-01-04T17:05:06.122Z,99306.57
2023-01-04T17:07:34.818Z,99296.68
2023-01-04T17:10:04.169Z,99289.49
2023-01-04T17:12:48.994Z,99287.56
2023-01-04T17:18:07.430Z,99279.30
2023-01-04T17:20:35.743Z,99274.35
2023-01-04T17:23:03.985Z,99273.80
2023-01-04T17:25:32.343Z,99265.21
2023-01-04T17:28:00.966Z,99257.31
2023-01-04T17:30:29.198Z,99258.60
2023-01-04T17:32:57.328Z,99256.95
2023-01-04T17:35:25.584Z,99255.62
2023-01-04T17:37:53.763Z,99254.98
2023-01-04T17:40:23.498Z,99256.41
2023-01-04T17:42:52.090Z,99257.89
2023-01-04T17:45:21.250Z,99253.26
2023-01-04T17:47:49.874Z,99245.40
2023-01-04T17:50:19.629Z,99234.73
2023-01-04T17:52:51.028Z,99229.73
2023-01-04T17:55:20.273Z,99230.06
2023-01-04T17:57:48.911Z,99215.58
2023-01-04T18:00:17.661Z,99205.73
2023-01-04T18:02:45.923Z,99205.85
2023-01-04T18:05:14.953Z,99209.80
2023-01-04T18:07:43.393Z,99197.80
2023-01-04T18:10:20.793Z,99191.66
2023-01-04T18:12:49.592Z,99191.14
2023-01-04T18:15:17.800Z,99189.27
2023-01-04T18:17:45.995Z,99189.10
2023-01-04T18:20:23.974Z,99186.49
2023-01-04T18:22:53.315Z,99180.81
2023-01-04T18:25:22.197Z,99175.75
2023-01-04T18:27:50.659Z,99179.21
2023-01-04T18:30:19.014Z,99181.21
2023-01-04T18:32:47.355Z,99174.16
2023-01-04T18:35:15.603Z,99167.09
2023-01-04T18:37:45.637Z,99152.09
2023-01-04T18:40:13.942Z,99133.58
2023-01-04T18:42:46.949Z,99138.77
2023-01-04T18:45:18.363Z,99152.08
2023-01-04T18:47:47.865Z,99147.64
2023-01-04T18:50:17.375Z,99149.69
2023-01-04T18:52:45.507Z,99140.65
2023-01-04T18:55:13.798Z,99142.46
2023-01-04T18:57:42.453Z,99141.48
2023-01-04T19:00:11.329Z,99137.64
2023-01-04T19:02:39.851Z,99142.73
2023-01-04T19:05:09.063Z,99141.82
2023-01-04T19:07:39.479Z,99130.69
2023-01-04T19:10:08.531Z,99130.63
2023-01-04T19:12:39.055Z,99130.64
2023-01-04T19:15:08.449Z,99127.58
2023-01-04T19:17:37.058Z,99133.02
2023-01-04T19:20:06.225Z,99123.14
2023-01-04T19:22:34.990Z,99129.44
2023-01-04T19:25:03.504Z,99128.34
2023-01-04T19:27:32.169Z,99123.00
2023-01-04T19:30:01.353Z,99119.94
2023-01-04T19:32:33.622Z,99121.89
2023-01-04T19:35:05.618Z,99129.23
2023-01-04T19:37:33.943Z,99134.49
2023-01-04T19:40:02.274Z,99134.23
2023-01-04T19:42:31.807Z,99126.06
2023-01-04T19:45:00.406Z,99129.52
2023-01-04T19:47:31.970Z,99131.33
2023-01-04T19:50:00.540Z,99130.58
2023-01-04T19:52:34.243Z,99118.20
2023-01-04T19:55:03.581Z,99120.33
2023-01-04T19:57:32.545Z,99111.36
2023-01-04T20:00:00.765Z,99104.77
2023-01-04T20:02:29.479Z,99109.36
2023-01-04T20:04:57.959Z,99111.86
2023-01-04T20:07:26.892Z,99114.55
2023-01-04T20:09:55.647Z,99110.83
2023-01-04T20:12:23.999Z,99098.38
2023-01-04T20:14:52.457Z,99097.70
2023-01-04T20:17:20.822Z,99113.50
2023-01-04T20:19:49.064Z,99103.61
2023-01-04T20:22:17.247Z,99104.85
2023-01-04T20:24:45.924Z,99103.11
2023-01-04T20:27:14.159Z,99101.15
2023-01-04T20:29:42.881Z,99107.95
2023-01-04T20:32:11.073Z,99104.83
2023-01-04T20:34:39.273Z,99103.69
2023-01-04T20:37:07.484Z,99097.20
2023-01-04T20:39:35.880Z,99090.40
2023-01-04T20:42:23.316Z,99089.54
2023-01-04T20:44:51.483Z,99088.67
2023-01-04T20:47:19.700Z,99086.80
2023-01-04T20:49:48.889Z,99090.44
2023-01-04T20:52:17.563Z,99085.06
2023-01-04T20:54:49.122Z,99079.84
2023-01-04T20:57:17.254Z,99080.92
2023-01-04T20:59:46.724Z,99063.20
2023-01-04T21:02:15.088Z,99060.73
2023-01-04T21:04:46.328Z,99067.53
2023-01-04T21:07:14.485Z,99060.64
2023-01-04T21:09:42.686Z,99052.05
2023-01-04T21:12:10.880Z,99039.31
2023-01-04T21:14:40.276Z,99033.95
2023-01-04T21:17:08.445Z,99033.70
2023-01-04T21:19:36.694Z,99036.27
2023-01-04T21:22:05.158Z,99041.33
2023-01-04T21:24:34.215Z,99031.14
2023-01-04T21:27:02.732Z,99028.73
2023-01-04T21:29:31.228Z,99026.70
2023-01-04T21:32:00.333Z,99012.85
2023-01-04T21:34:31.716Z,99012.23
2023-01-04T21:37:00.181Z,99016.52
2023-01-04T21:39:29.547Z,98995.15
2023-01-04T21:41:57.752Z,98977.75
2023-01-04T21:44:26.188Z,98981.98
2023-01-04T21:46:55.098Z,98989.24
2023-01-04T21:49:23.438Z,98984.02
2023-01-04T21:51:51.802Z,98975.23
2023-01-04T21:54:20.180Z,98979.23
2023-01-04T21:56:49.307Z,98975.66
2023-01-04T21:59:17.677Z,98985.62
2023-01-04T22:01:46.012Z,98988.00
2023-01-04T22:04:14.338Z,98982.33
2023-01-04T22:06:42.617Z,98974.35
2023-01-04T22:09:10.880Z,98958.60
2023-01-04T22:11:41.087Z,98963.27
2023-01-04T22:14:09.855Z,98959.76
2023-01-04T22:16:38.582Z,98964.48
2023-01-04T22:19:07.113Z,98964.33
2023-01-04T22:21:35.699Z,98958.02
2023-01-04T22:24:04.545Z,98951.14
2023-01-04T22:26:32.932Z,98952.11
2023-01-04T22:29:01.366Z,98952.48
2023-01-04T22:31:30.198Z,98954.53
2023-01-04T22:33:58.851Z,98948.38
2023-01-04T22:36:27.631Z,98962.30
2023-01-04T22:38:57.476Z,98952.24
2023-01-04T22:41:28.358Z,98955.70
2023-01-04T22:43:59.563Z,98958.42
2023-01-04T22:46:29.031Z,98952.66
2023-01-04T22:48:57.994Z,98945.15
2023-01-04T22:51:27.798Z,98935.64
2023-01-04T22:53:58.314Z,98921.86
2023-01-04T22:56:28.113Z,98917.34
2023-01-04T22:58:58.165Z,98915.15
2023-01-04T23:01:29.588Z,98912.75
2023-01-04T23:03:59.771Z,98911.80
2023-01-04T23:06:29.595Z,98909.98
2023-01-04T23:09:03.751Z,98913.58
2023-01-04T23:11:33.895Z,98908.83
2023-01-04T23:14:04.484Z,98910.30
2023-01-04T23:16:33.507Z,98906.33
2023-01-04T23:19:03.834Z,98913.67
2023-01-04T23:21:32.823Z,98901.77
2023-01-04T23:24:02.399Z,98894.41
2023-01-04T23:26:32.530Z,98892.49
2023-01-04T23:29:02.077Z,98893.10
2023-01-04T23:31:32.608Z,98889.29
2023-01-04T23:34:03.232Z,98876.52
2023-01-04T23:36:34.642Z,98875.52
2023-01-04T23:39:07.048Z,98874.45
2023-01-04T23:41:45.169Z,98870.86
2023-01-04T23:46:57.974Z,98861.64
2023-01-04T23:49:28.232Z,98855.10
2023-01-04T23:51:57.253Z,98851.83
2023-01-04T23:54:26.772Z,98852.71
2023-01-04T23:56:55.363Z,98847.38
2023-01-04T23:59:25.851Z,98840.95
